Time;durP1;ratioP1;P1;durP2;ratioP2;P2;SDS_P1;SDS_P2;PMS_P1;PMS_P2;Temp;Humidity;BMP_temperature;BMP_pressure;BME280_temperature;BME280_humidity;BME280_pressure;Samples;Min_cycle;Max_cycle;Signal;HPM_P1;HPM_P2
2022/06/30 00:00:01;;;;;;;8.37;7.67;;;23.90;96.30;;;;;;5079159;28;20180;-95
2022/06/30 00:02:27;;;;;;;7.97;7.17;;;23.90;96.40;;;;;;5079505;28;20208;-95
2022/06/30 00:04:53;;;;;;;8.30;7.50;;;23.90;96.50;;;;;;5079844;28;20177;-95
2022/06/30 00:07:19;;;;;;;8.97;8.07;;;23.90;96.70;;;;;;5078750;28;20197;-94
2022/06/30 00:09:44;;;;;;;9.00;8.10;;;23.90;96.60;;;;;;5077529;28;20166;-95
2022/06/30 00:12:10;;;;;;;10.10;7.97;;;23.90;96.60;;;;;;5078520;28;20172;-95
2022/06/30 00:14:36;;;;;;;10.47;8.30;;;23.90;96.60;;;;;;5077116;28;20181;-94
2022/06/30 00:17:02;;;;;;;9.53;8.50;;;23.90;96.70;;;;;;5078375;28;20181;-94
2022/06/30 00:19:32;;;;;;;8.83;8.03;;;23.90;96.70;;;;;;5081277;28;20205;-95
2022/06/30 00:21:59;;;;;;;8.40;7.60;;;23.90;96.80;;;;;;5082542;28;20202;-95
2022/06/30 00:24:25;;;;;;;8.90;8.00;;;23.80;96.80;;;;;;5081567;28;20470;-95
2022/06/30 00:26:51;;;;;;;9.87;8.87;;;23.80;96.80;;;;;;5082125;28;20179;-94
2022/06/30 00:29:17;;;;;;;9.67;8.73;;;23.80;96.90;;;;;;5082481;28;20176;-95
2022/06/30 00:31:42;;;;;;;9.40;8.60;;;23.80;96.90;;;;;;5082126;28;20154;-95
2022/06/30 00:34:08;;;;;;;9.40;8.50;;;23.70;97.00;;;;;;5082515;28;20251;-95
2022/06/30 00:36:34;;;;;;;9.80;8.80;;;23.80;97.00;;;;;;5080613;28;20206;-94
2022/06/30 00:39:00;;;;;;;9.80;8.30;;;23.80;97.00;;;;;;5076500;28;20183;-94
2022/06/30 00:41:26;;;;;;;9.83;8.93;;;23.70;97.10;;;;;;5073391;28;20207;-94
2022/06/30 00:43:52;;;;;;;9.57;8.60;;;23.70;97.20;;;;;;5073807;28;20180;-94
2022/06/30 00:46:18;;;;;;;9.93;9.00;;;23.70;97.30;;;;;;5073833;28;20176;-94
2022/06/30 00:48:44;;;;;;;9.70;8.33;;;23.70;97.30;;;;;;5075826;28;20481;-94
2022/06/30 00:51:11;;;;;;;9.43;8.53;;;23.70;97.40;;;;;;5076251;28;20266;-94
2022/06/30 00:53:40;;;;;;;9.87;8.87;;;23.70;97.40;;;;;;5074659;28;20168;-94
2022/06/30 00:56:08;;;;;;;10.07;9.07;;;23.60;97.40;;;;;;5074453;28;20178;-94
2022/06/30 00:58:41;;;;;;;9.90;8.90;;;23.70;97.50;;;;;;5075352;28;20200;-94
2022/06/30 01:01:08;;;;;;;10.20;9.10;;;23.60;97.50;;;;;;5073155;28;20174;-94
2022/06/30 01:03:34;;;;;;;9.90;8.90;;;23.60;97.60;;;;;;5074171;28;20243;-94
2022/06/30 01:06:02;;;;;;;9.33;8.43;;;23.60;97.60;;;;;;5074960;28;20211;-95
2022/06/30 01:08:30;;;;;;;9.40;8.50;;;23.60;97.70;;;;;;5078850;28;20191;-95
2022/06/30 01:13:46;;;;;;;10.33;9.27;;;23.50;97.90;;;;;;5099942;28;20221;-94
2022/06/30 01:16:12;;;;;;;10.30;9.40;;;23.50;98.10;;;;;;5082453;28;20152;-95
2022/06/30 01:18:38;;;;;;;10.47;9.37;;;23.50;98.10;;;;;;5081470;28;20198;-95
2022/06/30 01:21:05;;;;;;;10.63;9.30;;;23.50;98.10;;;;;;5081315;28;20188;-94
2022/06/30 01:23:32;;;;;;;9.80;8.80;;;23.50;98.10;;;;;;5081550;28;20210;-95
2022/06/30 01:25:57;;;;;;;10.83;8.73;;;23.50;98.20;;;;;;5082236;28;20168;-94
2022/06/30 01:28:23;;;;;;;9.93;8.93;;;23.50;98.40;;;;;;5081936;28;20158;-95
2022/06/30 01:30:49;;;;;;;11.60;9.20;;;23.40;98.40;;;;;;5082200;28;20162;-95
2022/06/30 01:33:15;;;;;;;10.67;8.47;;;23.40;98.40;;;;;;5081976;28;20201;-94
2022/06/30 01:35:40;;;;;;;9.53;8.73;;;23.40;98.50;;;;;;5081734;28;20176;-94
2022/06/30 01:38:21;;;;;;;9.70;8.80;;;23.30;98.60;;;;;;5081300;28;20156;-95
2022/06/30 01:40:47;;;;;;;9.97;9.07;;;23.30;98.80;;;;;;5080594;28;20168;-94
2022/06/30 01:43:13;;;;;;;10.13;9.13;;;23.30;98.50;;;;;;5081189;28;20195;-94
2022/06/30 01:45:40;;;;;;;12.70;9.00;;;23.40;98.70;;;;;;5081281;28;20171;-95
2022/06/30 01:48:12;;;;;;;9.73;8.77;;;23.30;98.60;;;;;;5080955;28;20172;-94
2022/06/30 01:50:38;;;;;;;10.23;9.13;;;23.30;98.70;;;;;;5080581;28;20191;-94
2022/06/30 01:53:04;;;;;;;10.73;9.70;;;23.30;98.70;;;;;;5081002;28;20183;-95
2022/06/30 01:55:30;;;;;;;12.13;9.33;;;23.30;98.70;;;;;;5079780;28;20231;-94
2022/06/30 01:57:56;;;;;;;12.00;9.47;;;23.30;98.80;;;;;;5080264;28;20175;-95
2022/06/30 02:00:24;;;;;;;10.10;8.73;;;23.30;98.80;;;;;;5078826;28;20183;-95
2022/06/30 02:02:51;;;;;;;10.97;9.87;;;23.30;98.80;;;;;;5078876;28;20199;-94
2022/06/30 02:05:18;;;;;;;12.23;9.70;;;23.30;98.80;;;;;;5079537;28;20198;-94
2022/06/30 02:07:43;;;;;;;9.90;8.90;;;23.30;98.80;;;;;;5080188;28;20163;-94
2022/06/30 02:10:14;;;;;;;10.70;8.83;;;23.30;98.90;;;;;;5079182;28;20234;-94
2022/06/30 02:12:46;;;;;;;10.63;8.63;;;23.20;98.80;;;;;;5079762;28;20178;-95
2022/06/30 02:15:15;;;;;;;10.70;9.60;;;23.30;98.80;;;;;;5075757;28;20167;-93
2022/06/30 02:17:41;;;;;;;10.30;9.20;;;23.30;98.70;;;;;;5067345;28;20205;-94
2022/06/30 02:20:08;;;;;;;9.70;8.83;;;23.30;98.70;;;;;;5068798;28;20172;-94
2022/06/30 02:22:39;;;;;;;10.53;9.37;;;23.20;98.70;;;;;;5069160;28;20207;-94
2022/06/30 02:25:06;;;;;;;11.20;9.70;;;23.30;98.80;;;;;;5070903;28;20179;-94
2022/06/30 02:27:32;;;;;;;8.27;7.47;;;23.20;98.80;;;;;;5068827;28;20182;-94
2022/06/30 02:29:59;;;;;;;9.47;8.57;;;23.20;98.80;;;;;;5069188;28;20232;-94
2022/06/30 02:32:25;;;;;;;10.17;9.27;;;23.20;98.80;;;;;;5069640;28;20271;-95
2022/06/30 02:34:52;;;;;;;9.00;8.10;;;23.20;98.80;;;;;;5068908;28;20193;-94
2022/06/30 02:37:18;;;;;;;11.10;8.53;;;23.20;98.90;;;;;;5069331;28;20203;-94
2022/06/30 02:39:46;;;;;;;10.53;9.43;;;23.20;98.90;;;;;;5067734;28;20179;-94
2022/06/30 02:42:12;;;;;;;10.67;9.57;;;23.20;98.80;;;;;;5069028;28;20218;-94
2022/06/30 02:44:38;;;;;;;10.23;9.23;;;23.20;98.80;;;;;;5069015;28;20183;-94
2022/06/30 02:47:03;;;;;;;11.43;9.37;;;23.20;98.90;;;;;;5068170;28;20183;-94
2022/06/30 02:49:30;;;;;;;11.00;9.57;;;23.10;98.90;;;;;;5069250;28;20179;-94
2022/06/30 02:51:55;;;;;;;10.63;9.10;;;23.10;99.00;;;;;;5069182;28;20183;-94
2022/06/30 02:54:21;;;;;;;9.50;8.60;;;23.10;99.00;;;;;;5068763;28;20417;-94
2022/06/30 02:56:50;;;;;;;11.13;10.03;;;23.10;99.00;;;;;;5068720;28;20177;-94
2022/06/30 02:59:16;;;;;;;8.97;8.03;;;23.10;99.10;;;;;;5069269;28;20171;-94
2022/06/30 03:01:42;;;;;;;10.10;9.20;;;23.00;99.10;;;;;;5069054;28;20213;-94
2022/06/30 03:04:07;;;;;;;10.10;9.20;;;23.00;99.00;;;;;;5069646;28;20203;-94
2022/06/30 03:06:34;;;;;;;10.60;9.47;;;23.00;99.00;;;;;;5067281;28;20560;-94
2022/06/30 03:09:01;;;;;;;11.77;10.07;;;23.00;99.00;;;;;;5067945;28;20210;-95
2022/06/30 03:11:27;;;;;;;7.03;6.43;;;23.00;99.00;;;;;;5069082;28;20282;-94
2022/06/30 03:13:53;;;;;;;10.43;8.90;;;23.00;99.00;;;;;;5069836;28;20167;-94
2022/06/30 03:16:19;;;;;;;10.10;9.10;;;23.00;99.10;;;;;;5067422;28;20164;-94
2022/06/30 03:18:45;;;;;;;11.03;9.57;;;23.00;99.00;;;;;;5068416;28;20203;-94
2022/06/30 03:21:11;;;;;;;10.70;9.60;;;23.00;99.30;;;;;;5066276;28;20163;-94
2022/06/30 03:23:37;;;;;;;11.87;9.03;;;22.90;99.30;;;;;;5075845;28;20178;-95
2022/06/30 03:26:03;;;;;;;10.70;9.57;;;22.90;99.20;;;;;;5075661;28;20188;-94
2022/06/30 03:28:29;;;;;;;11.50;9.67;;;22.90;99.30;;;;;;5076311;28;20221;-95
2022/06/30 03:30:55;;;;;;;10.47;9.13;;;22.90;99.30;;;;;;5075645;28;20187;-95
2022/06/30 03:33:21;;;;;;;10.37;9.07;;;22.90;99.30;;;;;;5077263;28;20214;-94
2022/06/30 03:35:47;;;;;;;10.10;9.20;;;22.90;99.30;;;;;;5076811;28;20171;-95
2022/06/30 03:38:14;;;;;;;10.27;9.27;;;22.80;99.40;;;;;;5077748;28;20193;-95
2022/06/30 03:40:41;;;;;;;9.33;8.43;;;22.80;99.30;;;;;;5077110;28;20164;-95
2022/06/30 03:43:08;;;;;;;10.27;9.33;;;22.80;99.30;;;;;;5077985;28;20213;-94
2022/06/30 03:45:34;;;;;;;10.30;9.30;;;22.80;99.40;;;;;;5079106;28;20172;-94
2022/06/30 03:48:01;;;;;;;11.63;9.27;;;22.80;99.30;;;;;;5078751;28;20175;-95
2022/06/30 03:50:28;;;;;;;11.17;8.67;;;22.80;99.30;;;;;;5078459;28;20172;-94
2022/06/30 03:52:53;;;;;;;10.93;9.83;;;22.70;99.30;;;;;;5080058;28;20205;-94
2022/06/30 03:55:19;;;;;;;10.07;9.13;;;22.70;99.30;;;;;;5082245;28;20222;-95
2022/06/30 03:58:01;;;;;;;9.93;9.03;;;22.80;99.40;;;;;;5083505;28;20175;-95
2022/06/30 04:00:26;;;;;;;10.63;9.63;;;22.70;99.40;;;;;;5084424;28;20183;-94
2022/06/30 04:02:52;;;;;;;10.30;9.30;;;22.80;99.30;;;;;;5084399;28;20202;-94
2022/06/30 04:05:18;;;;;;;10.33;9.30;;;22.70;99.20;;;;;;5084652;28;20167;-94
2022/06/30 04:08:31;;;;;;;10.77;9.67;;;22.70;99.10;;;;;;5084563;28;20160;-94
2022/06/30 04:10:57;;;;;;;10.67;9.67;;;22.80;99.10;;;;;;5084538;28;20148;-95
2022/06/30 04:13:22;;;;;;;12.03;9.20;;;22.80;99.10;;;;;;5084875;28;20172;-96
2022/06/30 04:15:48;;;;;;;11.13;10.13;;;22.80;99.10;;;;;;5084473;28;20243;-94
2022/06/30 04:21:36;;;;;;;10.73;9.73;;;22.80;99.20;;;;;;5101644;28;20254;-94
2022/06/30 04:24:02;;;;;;;11.17;9.50;;;22.80;99.00;;;;;;5084518;28;20165;-95
2022/06/30 04:26:27;;;;;;;11.93;10.83;;;22.80;99.00;;;;;;5084069;28;20164;-95
2022/06/30 04:29:00;;;;;;;11.77;10.03;;;22.90;98.90;;;;;;5083587;28;20176;-95
2022/06/30 04:34:09;;;;;;;8.27;7.57;;;22.90;98.90;;;;;;5098558;28;20225;-94
2022/06/30 04:36:43;;;;;;;12.60;11.30;;;22.90;99.00;;;;;;5080817;28;20160;-95
2022/06/30 04:39:09;;;;;;;12.30;11.10;;;23.00;98.80;;;;;;5081695;28;20179;-95
2022/06/30 04:41:36;;;;;;;8.80;7.90;;;23.00;98.60;;;;;;5081390;28;20207;-95
2022/06/30 04:44:02;;;;;;;11.10;9.77;;;23.00;98.50;;;;;;5082098;28;20168;-95
2022/06/30 04:46:40;;;;;;;11.13;9.20;;;23.10;98.40;;;;;;5081195;28;20175;-95
2022/06/30 04:49:06;;;;;;;9.83;8.83;;;23.10;98.20;;;;;;5081229;28;20205;-94
2022/06/30 04:51:32;;;;;;;12.03;10.70;;;23.20;98.20;;;;;;5080846;28;20183;-95
2022/06/30 04:53:58;;;;;;;8.83;6.70;;;23.20;98.00;;;;;;5080800;28;20160;-94
2022/06/30 04:56:23;;;;;;;12.53;10.60;;;23.30;98.00;;;;;;5079972;28;20195;-95
2022/06/30 04:58:49;;;;;;;11.53;10.37;;;23.30;98.40;;;;;;5079540;28;20172;-95
2022/06/30 05:01:15;;;;;;;10.73;9.60;;;23.40;97.90;;;;;;5080417;28;20278;-94
2022/06/30 05:03:41;;;;;;;10.57;9.40;;;23.40;97.90;;;;;;5076772;28;20187;-94
2022/06/30 05:06:14;;;;;;;11.10;9.97;;;23.40;98.60;;;;;;5078781;28;20194;-94
2022/06/30 05:08:40;;;;;;;12.80;9.90;;;23.50;99.90;;;;;;5079515;28;20202;-94
2022/06/30 05:11:06;;;;;;;8.00;6.67;;;23.50;98.50;;;;;;5080429;28;20241;-95
2022/06/30 05:13:32;;;;;;;7.20;6.50;;;23.60;97.70;;;;;;5080151;28;20185;-94
2022/06/30 05:15:58;;;;;;;6.87;6.27;;;23.60;97.00;;;;;;5078774;28;20312;-94
2022/06/30 05:18:27;;;;;;;6.90;6.03;;;23.70;96.50;;;;;;5079726;28;20172;-94
2022/06/30 05:20:57;;;;;;;6.47;5.87;;;23.70;96.20;;;;;;5079037;28;20178;-95
2022/06/30 05:23:23;;;;;;;6.37;5.77;;;23.80;96.00;;;;;;5080920;28;20206;-95
2022/06/30 05:28:33;;;;;;;6.50;5.90;;;23.90;95.40;;;;;;5094867;28;20237;-95
2022/06/30 05:31:07;;;;;;;6.10;5.60;;;24.00;95.20;;;;;;5077393;28;20172;-95
2022/06/30 05:33:33;;;;;;;6.60;6.00;;;24.00;95.10;;;;;;5078283;28;20191;-94
2022/06/30 05:35:59;;;;;;;6.67;5.97;;;24.10;94.80;;;;;;5078714;28;20182;-94
2022/06/30 05:38:25;;;;;;;6.10;5.30;;;24.20;94.60;;;;;;5078128;28;20171;-95
2022/06/30 05:40:58;;;;;;;6.20;5.60;;;24.30;94.50;;;;;;5078662;28;20165;-94
2022/06/30 05:43:24;;;;;;;6.40;5.80;;;24.30;94.40;;;;;;5078893;28;20217;-95
2022/06/30 05:45:52;;;;;;;6.60;6.00;;;24.40;94.20;;;;;;5077117;28;20172;-95
2022/06/30 05:48:19;;;;;;;5.67;5.07;;;24.50;94.20;;;;;;5079002;28;20167;-95
2022/06/30 05:50:47;;;;;;;5.80;5.30;;;24.50;94.10;;;;;;5079271;28;20163;-94
2022/06/30 05:53:13;;;;;;;6.37;5.73;;;24.60;93.90;;;;;;5079191;28;20200;-95
2022/06/30 05:55:39;;;;;;;8.10;5.90;;;24.70;93.60;;;;;;5078075;28;20178;-95
2022/06/30 05:58:04;;;;;;;6.10;5.60;;;24.80;93.50;;;;;;5078340;28;20191;-94
2022/06/30 06:00:31;;;;;;;6.30;5.70;;;24.90;93.20;;;;;;5077458;28;20171;-94
2022/06/30 06:02:57;;;;;;;6.70;6.10;;;25.00;93.20;;;;;;5077355;28;20191;-94
2022/06/30 06:05:24;;;;;;;6.30;5.70;;;25.10;92.90;;;;;;5076599;28;20262;-95
2022/06/30 06:07:51;;;;;;;6.97;6.23;;;25.20;92.70;;;;;;5074545;28;20174;-95
2022/06/30 06:10:18;;;;;;;6.37;5.77;;;25.30;92.30;;;;;;5074218;28;20235;-95
2022/06/30 06:12:44;;;;;;;6.63;6.03;;;25.50;91.80;;;;;;5072587;28;20730;-94
2022/06/30 06:15:14;;;;;;;6.93;6.20;;;25.70;91.20;;;;;;5073395;28;20497;-94
2022/06/30 06:17:44;;;;;;;6.77;6.07;;;26.10;90.40;;;;;;5073638;28;20186;-95
2022/06/30 06:20:12;;;;;;;7.00;6.17;;;26.40;88.10;;;;;;5072926;28;20239;-95
2022/06/30 06:22:39;;;;;;;7.03;6.30;;;26.80;85.20;;;;;;5067482;28;20203;-94
2022/06/30 06:25:05;;;;;;;7.20;6.47;;;27.10;82.90;;;;;;5064403;28;20172;-94
2022/06/30 06:27:32;;;;;;;7.47;6.77;;;27.30;82.60;;;;;;5066852;28;20167;-94
2022/06/30 06:29:57;;;;;;;6.63;6.03;;;27.60;80.00;;;;;;5064254;28;20167;-94
2022/06/30 06:32:24;;;;;;;7.40;6.20;;;27.70;77.80;;;;;;5065546;28;20202;-94
2022/06/30 06:34:50;;;;;;;7.20;6.30;;;27.90;76.00;;;;;;5065606;28;20187;-94
2022/06/30 06:37:17;;;;;;;7.20;6.50;;;28.00;74.40;;;;;;5062824;28;20175;-94
2022/06/30 06:39:42;;;;;;;7.67;6.73;;;28.10;74.30;;;;;;5064295;28;20172;-94
2022/06/30 06:42:09;;;;;;;7.97;6.33;;;28.20;73.40;;;;;;5069597;28;20207;-95
2022/06/30 06:44:35;;;;;;;8.17;5.83;;;28.40;73.90;;;;;;5070588;28;20197;-95
2022/06/30 06:47:01;;;;;;;7.03;6.40;;;28.50;72.20;;;;;;5068006;28;20191;-94
2022/06/30 06:49:27;;;;;;;7.00;6.30;;;28.60;71.50;;;;;;5066828;28;20178;-95
2022/06/30 06:51:57;;;;;;;8.60;6.05;;;28.70;70.70;;;;;;5067110;28;20236;-95
2022/06/30 06:54:23;;;;;;;6.82;6.13;;;28.80;70.30;;;;;;5068027;28;20159;-95
2022/06/30 06:56:50;;;;;;;6.57;5.57;;;28.90;69.80;;;;;;5069208;28;20278;-95
2022/06/30 06:59:16;;;;;;;7.18;6.15;;;29.00;69.50;;;;;;5074246;28;20183;-95
2022/06/30 07:01:42;;;;;;;6.43;5.82;;;29.10;71.10;;;;;;5074001;28;20246;-94
2022/06/30 07:04:08;;;;;;;7.50;6.07;;;29.20;71.80;;;;;;5072231;28;20243;-95
2022/06/30 07:06:34;;;;;;;6.45;5.70;;;29.30;70.80;;;;;;5071614;28;20175;-95
2022/06/30 07:09:01;;;;;;;6.57;5.97;;;29.30;71.00;;;;;;5071044;28;20168;-95
2022/06/30 07:11:26;;;;;;;6.20;5.63;;;29.50;69.10;;;;;;5071279;28;20233;-95
2022/06/30 07:13:53;;;;;;;6.20;5.60;;;29.60;68.50;;;;;;5069484;28;20167;-95
2022/06/30 07:16:18;;;;;;;6.72;6.03;;;29.60;67.40;;;;;;5066533;28;20446;-95
2022/06/30 07:18:44;;;;;;;6.20;5.60;;;29.70;66.80;;;;;;5069651;28;20175;-95
2022/06/30 07:21:10;;;;;;;6.75;5.47;;;29.70;68.10;;;;;;5065892;28;20251;-95
2022/06/30 07:23:36;;;;;;;7.93;5.75;;;29.80;66.10;;;;;;5064761;28;20233;-95
2022/06/30 07:26:02;;;;;;;6.30;5.70;;;29.90;66.00;;;;;;5066564;28;20172;-95
2022/06/30 07:28:28;;;;;;;6.53;5.93;;;29.90;65.50;;;;;;5066921;28;20239;-95
2022/06/30 07:30:54;;;;;;;5.80;5.05;;;30.00;66.00;;;;;;5073782;28;20175;-95
2022/06/30 07:33:20;;;;;;;6.05;5.03;;;30.00;65.30;;;;;;5072435;28;20251;-95
2022/06/30 07:35:46;;;;;;;5.90;5.15;;;30.10;64.80;;;;;;5068059;28;20178;-95
2022/06/30 07:38:13;;;;;;;6.03;5.30;;;30.20;64.30;;;;;;5070719;28;20171;-95
2022/06/30 07:40:39;;;;;;;5.82;4.97;;;30.20;63.80;;;;;;5070650;28;20176;-95
2022/06/30 07:43:05;;;;;;;5.57;5.07;;;30.20;63.70;;;;;;5072363;28;20225;-95
2022/06/30 07:45:31;;;;;;;6.35;5.07;;;30.30;63.20;;;;;;5072339;28;20176;-95
2022/06/30 07:47:58;;;;;;;4.95;4.55;;;30.30;63.40;;;;;;5070985;28;20171;-95
2022/06/30 07:50:24;;;;;;;4.75;4.35;;;30.40;63.50;;;;;;5069351;28;20195;-95
2022/06/30 07:52:52;;;;;;;5.30;4.80;;;30.40;62.70;;;;;;5070845;28;20176;-95
2022/06/30 07:55:18;;;;;;;5.47;4.90;;;30.50;62.20;;;;;;5068986;28;20274;-95
2022/06/30 07:57:47;;;;;;;4.95;4.35;;;30.50;61.60;;;;;;5071159;28;20175;-95
2022/06/30 08:00:14;;;;;;;5.10;4.55;;;30.50;61.10;;;;;;5078305;28;20171;-95
2022/06/30 08:02:39;;;;;;;4.70;4.30;;;30.50;61.00;;;;;;5068351;28;20211;-95
2022/06/30 08:05:06;;;;;;;4.80;4.40;;;30.50;61.10;;;;;;5062438;28;20226;-95
2022/06/30 08:07:32;;;;;;;5.13;4.57;;;30.50;60.80;;;;;;5060665;28;20174;-92
2022/06/30 08:09:58;;;;;;;4.60;4.20;;;30.50;61.20;;;;;;5056425;28;20168;-93
2022/06/30 08:12:24;;;;;;;4.60;4.00;;;30.50;61.70;;;;;;5060105;28;20210;-92
2022/06/30 08:14:55;;;;;;;4.55;4.07;;;30.60;61.40;;;;;;5057108;28;20182;-93
2022/06/30 08:18:04;;;;;;;4.68;4.07;;;30.60;61.40;;;;;;5057548;28;20175;-93
2022/06/30 08:20:30;;;;;;;4.40;4.00;;;30.60;61.20;;;;;;5053918;28;20171;-92
2022/06/30 08:22:56;;;;;;;5.28;4.15;;;30.70;61.00;;;;;;5055684;28;20448;-92
2022/06/30 08:25:21;;;;;;;3.88;3.58;;;30.70;61.10;;;;;;5055006;28;20182;-92
2022/06/30 08:27:47;;;;;;;4.30;3.90;;;30.70;60.90;;;;;;5055536;28;20176;-92
2022/06/30 08:30:13;;;;;;;4.43;4.03;;;30.90;60.50;;;;;;5055888;28;20199;-93
2022/06/30 08:32:40;;;;;;;4.32;3.92;;;30.90;60.20;;;;;;5056010;28;20194;-93
2022/06/30 08:35:05;;;;;;;4.28;3.83;;;30.90;60.20;;;;;;5054907;28;20171;-92
2022/06/30 08:37:31;;;;;;;4.03;3.67;;;31.00;60.10;;;;;;5059961;28;20206;-92
2022/06/30 08:42:43;;;;;;;4.43;4.03;;;31.10;59.90;;;;;;5079131;28;20236;-92
2022/06/30 08:45:13;;;;;;;5.85;3.58;;;31.10;59.80;;;;;;5059680;28;20397;-92
2022/06/30 08:47:39;;;;;;;4.32;3.90;;;31.10;59.60;;;;;;5061554;28;20191;-93
2022/06/30 08:50:10;;;;;;;4.78;3.80;;;31.10;59.60;;;;;;5057964;28;20168;-93
2022/06/30 08:52:51;;;;;;;4.40;3.47;;;31.10;59.40;;;;;;5059650;28;20264;-93
2022/06/30 08:55:28;;;;;;;4.18;3.88;;;31.20;59.40;;;;;;5060981;28;20194;-93
2022/06/30 08:58:08;;;;;;;3.88;3.47;;;31.20;59.40;;;;;;5058594;28;20188;-93
2022/06/30 09:00:36;;;;;;;3.70;3.40;;;31.30;59.30;;;;;;5061021;28;20343;-93
2022/06/30 09:03:04;;;;;;;3.70;3.40;;;31.30;59.10;;;;;;5056610;28;20199;-92
2022/06/30 09:05:30;;;;;;;3.85;3.55;;;31.40;59.00;;;;;;5056996;28;20171;-93
2022/06/30 09:07:56;;;;;;;3.83;3.40;;;31.40;58.80;;;;;;5058477;28;20176;-93
2022/06/30 09:10:24;;;;;;;3.80;3.50;;;31.40;58.70;;;;;;5057630;28;20266;-93
2022/06/30 09:12:58;;;;;;;5.28;3.25;;;31.50;58.70;;;;;;5058978;28;20182;-93
2022/06/30 09:15:24;;;;;;;3.60;3.30;;;31.50;58.40;;;;;;5065218;28;20171;-93
2022/06/30 09:17:53;;;;;;;3.67;3.38;;;31.60;58.40;;;;;;5061381;28;20302;-93
2022/06/30 09:20:18;;;;;;;4.60;3.38;;;31.60;58.30;;;;;;5060830;28;20176;-93
2022/06/30 09:22:44;;;;;;;3.50;3.20;;;31.60;58.30;;;;;;5061857;28;20226;-93
2022/06/30 09:25:12;;;;;;;3.92;3.50;;;31.60;58.00;;;;;;5060589;28;20202;-93
2022/06/30 09:27:43;;;;;;;4.55;3.33;;;31.60;58.00;;;;;;5060670;28;20475;-94
2022/06/30 09:30:13;;;;;;;3.47;3.17;;;31.60;57.90;;;;;;5058193;28;20176;-94
2022/06/30 09:33:05;;;;;;;4.35;3.30;;;31.60;57.90;;;;;;5058582;28;20260;-94
2022/06/30 09:35:31;;;;;;;3.47;3.00;;;31.70;57.80;;;;;;5062598;28;20239;-94
2022/06/30 09:38:07;;;;;;;3.60;3.30;;;31.60;58.00;;;;;;5061821;28;20206;-94
2022/06/30 09:40:38;;;;;;;3.53;3.22;;;31.60;58.00;;;;;;5061553;28;20182;-94
2022/06/30 09:43:06;;;;;;;4.78;3.17;;;31.50;58.10;;;;;;5060151;28;20298;-93
2022/06/30 09:45:52;;;;;;;4.10;3.28;;;31.60;58.10;;;;;;5061859;28;20215;-93
2022/06/30 09:48:17;;;;;;;3.35;3.00;;;31.60;57.80;;;;;;5070288;28;20214;-93
2022/06/30 09:50:57;;;;;;;4.57;3.30;;;31.70;57.70;;;;;;5061096;28;20176;-93
2022/06/30 09:53:22;;;;;;;5.28;3.20;;;31.70;57.40;;;;;;5062547;28;20172;-93
2022/06/30 09:55:48;;;;;;;3.25;3.00;;;31.70;57.60;;;;;;5059249;28;20172;-93
2022/06/30 09:58:33;;;;;;;3.80;3.00;;;31.70;57.40;;;;;;5058463;28;20171;-92
2022/06/30 10:00:59;;;;;;;3.30;3.00;;;31.80;57.30;;;;;;5062057;28;20236;-94
2022/06/30 10:03:25;;;;;;;5.25;3.20;;;31.70;57.10;;;;;;5063910;28;20203;-93
2022/06/30 10:06:15;;;;;;;3.60;3.03;;;31.70;57.20;;;;;;5063543;28;20199;-93
2022/06/30 10:08:41;;;;;;;3.72;2.92;;;31.70;57.40;;;;;;5062288;28;20254;-93
2022/06/30 10:11:07;;;;;;;3.05;2.60;;;31.70;57.50;;;;;;5061022;28;20425;-93
2022/06/30 10:13:39;;;;;;;2.97;2.60;;;31.70;57.30;;;;;;5060260;28;20266;-93
2022/06/30 10:16:06;;;;;;;3.30;3.00;;;31.70;57.40;;;;;;5059244;28;20172;-94
2022/06/30 10:18:39;;;;;;;3.22;2.40;;;31.70;57.30;;;;;;5059718;28;20195;-94
2022/06/30 10:21:05;;;;;;;3.00;2.80;;;31.60;57.40;;;;;;5060742;28;20171;-94
2022/06/30 10:23:32;;;;;;;3.05;2.70;;;31.60;57.40;;;;;;5058010;28;20203;-94
2022/06/30 10:25:58;;;;;;;3.20;2.70;;;31.60;57.50;;;;;;5058632;28;20198;-94
2022/06/30 10:28:27;;;;;;;3.47;2.83;;;31.50;57.70;;;;;;5059498;28;20195;-93
2022/06/30 10:31:16;;;;;;;3.00;2.70;;;31.50;57.80;;;;;;5057416;28;20202;-94
2022/06/30 10:34:04;;;;;;;2.47;2.28;;;31.60;57.70;;;;;;5056057;28;20302;-94
2022/06/30 10:36:37;;;;;;;3.75;2.63;;;31.60;57.50;;;;;;5056390;28;20586;-93
2022/06/30 10:39:20;;;;;;;3.92;2.63;;;31.70;57.30;;;;;;5056879;28;20171;-94
2022/06/30 10:41:47;;;;;;;2.78;2.35;;;31.70;57.10;;;;;;5056859;28;20382;-93
2022/06/30 10:44:21;;;;;;;5.07;2.60;;;31.60;56.80;;;;;;5058863;28;20179;-93
2022/06/30 10:46:56;;;;;;;3.33;2.70;;;31.70;56.60;;;;;;5055071;28;20167;-93
2022/06/30 10:49:26;;;;;;;4.75;3.08;;;31.70;55.10;;;;;;5053170;28;20201;-93
2022/06/30 10:52:16;;;;;;;3.92;2.70;;;31.70;55.70;;;;;;5055207;28;20175;-93
2022/06/30 10:54:44;;;;;;;4.38;2.28;;;31.70;55.30;;;;;;5055184;28;20521;-93
2022/06/30 10:57:12;;;;;;;4.45;2.33;;;31.80;55.70;;;;;;5054363;28;20179;-93
2022/06/30 10:59:41;;;;;;;2.85;2.50;;;31.80;55.30;;;;;;5055441;28;20171;-94
2022/06/30 11:02:07;;;;;;;4.03;2.30;;;31.80;54.90;;;;;;5054515;28;20204;-93
2022/06/30 11:04:34;;;;;;;4.30;2.28;;;31.80;54.70;;;;;;5056190;28;20168;-93
2022/06/30 11:07:33;;;;;;;3.97;2.30;;;31.80;54.50;;;;;;5053172;28;20409;-93
2022/06/30 11:09:59;;;;;;;9.40;2.40;;;31.90;54.20;;;;;;5013246;28;20176;-93
2022/06/30 11:12:32;;;;;;;5.03;2.25;;;31.90;54.00;;;;;;5054883;28;20172;-93
2022/06/30 11:14:58;;;;;;;4.07;2.35;;;31.90;53.50;;;;;;5054175;28;20278;-93
2022/06/30 11:17:29;;;;;;;4.78;2.38;;;31.90;53.60;;;;;;5051778;28;20303;-93
2022/06/30 11:20:06;;;;;;;3.70;2.40;;;31.90;53.50;;;;;;5055344;28;20172;-94
2022/06/30 11:22:32;;;;;;;3.28;2.05;;;32.00;53.10;;;;;;5063299;28;20217;-93
2022/06/30 11:25:06;;;;;;;3.53;2.60;;;32.00;53.20;;;;;;5071950;28;20203;-93
2022/06/30 11:27:35;;;;;;;3.88;2.15;;;32.00;53.30;;;;;;5075387;28;20187;-93
2022/06/30 11:30:05;;;;;;;2.72;2.15;;;32.00;53.30;;;;;;5073876;28;20247;-92
2022/06/30 11:32:31;;;;;;;2.80;2.40;;;32.10;53.20;;;;;;5068506;28;20187;-93
2022/06/30 11:35:03;;;;;;;3.22;2.20;;;32.10;53.30;;;;;;5067740;28;20247;-93
2022/06/30 11:37:31;;;;;;;5.35;2.40;;;32.00;53.60;;;;;;5065342;28;20174;-92
2022/06/30 11:40:04;;;;;;;3.15;2.30;;;32.00;52.60;;;;;;5060279;28;20202;-92
2022/06/30 11:42:31;;;;;;;4.00;2.53;;;32.00;52.60;;;;;;5060698;28;20267;-93
2022/06/30 11:44:57;;;;;;;4.97;2.85;;;32.00;50.80;;;;;;5059601;28;20202;-92
2022/06/30 11:47:23;;;;;;;2.60;2.40;;;32.00;52.00;;;;;;5060651;28;20164;-92
2022/06/30 11:50:00;;;;;;;3.47;2.15;;;32.10;51.40;;;;;;5061983;28;20514;-93
2022/06/30 11:52:29;;;;;;;3.95;2.50;;;32.00;52.30;;;;;;5061940;28;20312;-93
2022/06/30 11:54:56;;;;;;;6.50;2.58;;;32.00;51.80;;;;;;5061204;28;20199;-93
2022/06/30 11:57:27;;;;;;;2.40;2.20;;;32.00;51.90;;;;;;5070993;28;20155;-93
2022/06/30 12:00:04;;;;;;;4.07;2.70;;;32.00;52.00;;;;;;5080806;28;20179;-92
2022/06/30 12:02:30;;;;;;;2.40;2.20;;;32.00;51.30;;;;;;5081147;28;20206;-92
2022/06/30 12:11:45;;;;;;;3.55;2.47;;;31.90;50.30;;;;;;5098729;28;20150;-93
2022/06/30 12:14:12;;;;;;;3.35;2.25;;;32.00;49.30;;;;;;5083648;28;20171;-93
2022/06/30 12:16:38;;;;;;;5.90;2.50;;;31.90;48.80;;;;;;5085275;28;20160;-93
2022/06/30 12:19:03;;;;;;;3.03;2.45;;;31.90;48.50;;;;;;5085242;28;20156;-93
2022/06/30 12:21:30;;;;;;;4.47;2.60;;;31.80;48.20;;;;;;5085089;28;20164;-92
2022/06/30 12:23:56;;;;;;;4.22;2.38;;;31.80;49.30;;;;;;5085067;28;20195;-94
2022/06/30 12:26:23;;;;;;;3.42;2.47;;;31.80;50.40;;;;;;5084951;28;20369;-92
2022/06/30 12:28:54;;;;;;;3.20;2.10;;;31.80;51.00;;;;;;5084904;28;20179;-91
2022/06/30 12:31:25;;;;;;;6.70;2.40;;;31.80;51.40;;;;;;5084897;28;20163;-92
2022/06/30 12:33:52;;;;;;;2.45;2.20;;;31.80;51.40;;;;;;5083969;28;20271;-92
2022/06/30 12:37:13;;;;;;;4.50;2.40;;;31.80;51.80;;;;;;5084733;28;20152;-92
2022/06/30 12:39:44;;;;;;;3.83;2.22;;;31.80;52.30;;;;;;5004954;28;20155;-92
2022/06/30 12:42:10;;;;;;;3.83;2.20;;;31.80;52.60;;;;;;5070913;28;20275;-92
2022/06/30 12:44:40;;;;;;;5.82;2.40;;;31.70;52.90;;;;;;5084555;28;20197;-94
2022/06/30 12:47:08;;;;;;;4.60;3.00;;;31.70;53.30;;;;;;5082728;28;20203;-92
2022/06/30 12:49:35;;;;;;;2.92;2.17;;;31.70;51.40;;;;;;5084167;28;20187;-92
2022/06/30 12:55:24;;;;;;;3.05;2.58;;;31.70;53.10;;;;;;5096796;28;21140;-93
2022/06/30 12:57:50;;;;;;;3.20;2.30;;;31.70;53.10;;;;;;5084033;28;20180;-94
2022/06/30 13:00:16;;;;;;;3.13;2.20;;;31.70;53.40;;;;;;5082989;28;20187;-92
2022/06/30 13:06:25;;;;;;;2.55;2.30;;;31.70;53.40;;;;;;5101431;28;20200;-93
2022/06/30 13:08:51;;;;;;;3.17;2.60;;;31.70;52.40;;;;;;5083891;28;20152;-92
2022/06/30 13:11:26;;;;;;;3.05;2.40;;;31.70;53.10;;;;;;5084175;28;20247;-93
2022/06/30 13:13:54;;;;;;;5.90;2.83;;;31.70;52.60;;;;;;5084184;28;20223;-92
2022/06/30 13:16:21;;;;;;;3.85;2.50;;;31.70;48.80;;;;;;5084022;28;20154;-92